createdAt,value
2023-02-28T00:01:48.013Z,7.25
2023-02-28T00:08:23.026Z,5.97
2023-02-28T00:10:51.088Z,5.82
2023-02-28T00:14:03.231Z,6.97
2023-02-28T00:16:30.442Z,6.60
2023-02-28T00:18:57.532Z,6.72
2023-02-28T00:21:25.234Z,6.43
2023-02-28T00:23:52.621Z,6.72
2023-02-28T00:26:21.818Z,6.13
2023-02-28T00:28:50.390Z,7.28
2023-02-28T00:31:17.989Z,6.13
2023-02-28T00:33:45.144Z,6.70
2023-02-28T00:36:12.873Z,6.50
2023-02-28T00:38:42.332Z,6.53
2023-02-28T00:41:10.140Z,6.55
2023-02-28T00:43:40.242Z,6.80
2023-02-28T00:46:08.698Z,5.78
2023-02-28T00:48:36.413Z,6.25
2023-02-28T00:51:05.643Z,5.90
2023-02-28T00:53:33.819Z,6.20
2023-02-28T00:56:01.568Z,6.65
2023-02-28T00:58:28.818Z,6.22
2023-02-28T01:00:56.411Z,5.40
2023-02-28T01:03:24.015Z,6.70
2023-02-28T01:05:51.755Z,6.03
2023-02-28T01:08:18.898Z,5.95
2023-02-28T01:10:46.255Z,6.70
2023-02-28T01:17:52.603Z,6.22
2023-02-28T01:20:20.298Z,6.20
2023-02-28T01:22:48.499Z,6.53
2023-02-28T01:25:15.756Z,6.28
2023-02-28T01:27:43.980Z,6.25
2023-02-28T01:30:11.940Z,6.20
2023-02-28T01:32:39.129Z,6.22
2023-02-28T01:35:07.271Z,6.30
2023-02-28T01:37:34.919Z,5.60
2023-02-28T01:40:02.060Z,6.28
2023-02-28T01:42:29.721Z,6.25
2023-02-28T01:45:31.997Z,6.15
2023-02-28T01:48:09.302Z,6.10
2023-02-28T01:50:43.780Z,6.65
2023-02-28T01:53:17.223Z,6.47
2023-02-28T01:55:50.617Z,6.93
2023-02-28T01:58:18.011Z,6.28
2023-02-28T02:00:45.603Z,6.30
2023-02-28T02:03:19.987Z,6.72
2023-02-28T02:05:48.844Z,6.28
2023-02-28T02:08:29.381Z,6.70
2023-02-28T02:11:02.929Z,6.20
2023-02-28T02:14:03.437Z,6.40
2023-02-28T02:17:21.877Z,6.32
2023-02-28T02:20:17.338Z,6.60
2023-02-28T02:23:21.841Z,7.28
2023-02-28T02:26:29.304Z,6.80
2023-02-28T02:38:30.701Z,6.40
2023-02-28T02:42:06.624Z,6.35
2023-02-28T02:44:51.833Z,6.10
2023-02-28T02:47:27.065Z,5.78
2023-02-28T02:50:00.425Z,6.85
2023-02-28T02:52:53.389Z,5.93
2023-02-28T02:55:23.645Z,6.47
2023-02-28T02:58:03.807Z,7.07
2023-02-28T03:00:40.291Z,6.82
2023-02-28T03:03:10.739Z,7.03
2023-02-28T03:09:39.517Z,8.10
2023-02-28T03:12:13.393Z,7.32
2023-02-28T03:14:44.874Z,6.57
2023-02-28T03:18:15.481Z,7.50
2023-02-28T03:21:09.477Z,6.93
2023-02-28T03:24:44.665Z,6.65
2023-02-28T03:27:23.747Z,12.50
2023-02-28T03:30:07.092Z,9.70
2023-02-28T03:32:43.725Z,8.52
2023-02-28T03:35:26.489Z,9.23
2023-02-28T03:38:04.453Z,7.43
2023-02-28T03:40:38.116Z,8.48
2023-02-28T03:43:14.655Z,7.78
2023-02-28T03:45:48.572Z,8.48
2023-02-28T03:48:33.154Z,8.00
2023-02-28T03:51:03.310Z,8.07
2023-02-28T03:53:37.709Z,9.95
2023-02-28T03:56:49.591Z,9.23
2023-02-28T03:59:31.746Z,9.25
2023-02-28T04:01:59.478Z,10.50
2023-02-28T04:04:26.910Z,9.48
2023-02-28T04:07:03.135Z,9.32
2023-02-28T04:09:30.266Z,9.40
2023-02-28T04:11:57.600Z,8.35
2023-02-28T04:14:25.400Z,9.07
2023-02-28T04:16:53.341Z,9.73
2023-02-28T04:19:20.635Z,9.77
2023-02-28T04:21:55.172Z,9.90
2023-02-28T04:24:26.891Z,10.07
2023-02-28T04:26:57.766Z,9.90
2023-02-28T04:29:33.211Z,10.77
2023-02-28T04:32:02.345Z,9.55
2023-02-28T04:34:32.739Z,10.10
2023-02-28T04:37:16.485Z,10.10
2023-02-28T04:39:45.005Z,10.52
2023-02-28T04:42:13.570Z,10.13
2023-02-28T04:44:42.253Z,8.88
2023-02-28T04:47:09.400Z,8.88
2023-02-28T04:49:36.574Z,9.23
2023-02-28T04:52:04.792Z,9.95
2023-02-28T04:54:31.874Z,9.23
2023-02-28T04:56:59.041Z,9.77
2023-02-28T04:59:26.394Z,10.57
2023-02-28T05:01:56.750Z,11.13
2023-02-28T05:04:24.064Z,10.00
2023-02-28T05:06:53.830Z,11.48
2023-02-28T05:09:21.288Z,12.65
2023-02-28T05:11:49.577Z,12.65
2023-02-28T05:14:16.871Z,11.55
2023-02-28T05:16:44.398Z,11.57
2023-02-28T05:19:11.651Z,11.60
2023-02-28T05:21:52.387Z,11.75
2023-02-28T05:24:26.367Z,10.85
2023-02-28T05:26:56.128Z,10.88
2023-02-28T05:29:23.707Z,11.00
2023-02-28T05:31:51.397Z,12.45
2023-02-28T05:34:18.561Z,11.18
2023-02-28T05:36:46.121Z,11.82
2023-02-28T05:39:14.130Z,11.27
2023-02-28T05:41:43.680Z,11.70
2023-02-28T05:44:12.153Z,12.73
2023-02-28T05:46:40.374Z,12.82
2023-02-28T05:49:07.585Z,14.32
2023-02-28T05:51:37.253Z,12.45
2023-02-28T05:54:04.825Z,11.80
2023-02-28T05:56:32.254Z,11.93
2023-02-28T05:58:59.393Z,13.32
2023-02-28T06:01:49.338Z,12.43
2023-02-28T06:07:36.889Z,13.77
2023-02-28T06:10:04.481Z,11.35
2023-02-28T06:12:31.484Z,11.23
2023-02-28T06:14:58.668Z,11.80
2023-02-28T06:17:25.814Z,12.38
2023-02-28T06:19:53.277Z,12.15
2023-02-28T06:22:23.872Z,12.75
2023-02-28T06:24:51.036Z,12.98
2023-02-28T06:27:21.582Z,12.95
2023-02-28T06:29:48.791Z,12.38
2023-02-28T06:32:16.009Z,12.68
2023-02-28T06:34:48.970Z,13.23
2023-02-28T06:37:16.209Z,12.95
2023-02-28T06:39:43.612Z,13.15
2023-02-28T06:43:35.891Z,13.25
2023-02-28T06:46:06.458Z,11.98
2023-02-28T06:48:35.977Z,12.77
2023-02-28T06:51:11.215Z,13.05
2023-02-28T06:53:38.554Z,13.50
2023-02-28T06:56:31.868Z,12.60
2023-02-28T06:59:15.314Z,13.25
2023-02-28T07:02:32.787Z,14.43
2023-02-28T07:04:59.984Z,13.43
2023-02-28T07:07:27.075Z,13.25
2023-02-28T07:09:54.389Z,14.43
2023-02-28T07:12:22.069Z,14.05
2023-02-28T07:14:49.253Z,12.85
2023-02-28T07:17:16.769Z,13.10
2023-02-28T07:19:43.930Z,13.65
2023-02-28T07:22:11.234Z,12.55
2023-02-28T07:24:39.331Z,13.27
2023-02-28T07:27:09.212Z,12.98
2023-02-28T07:29:36.289Z,11.75
2023-02-28T07:32:03.421Z,11.88
2023-02-28T07:34:30.767Z,11.23
2023-02-28T07:36:57.819Z,12.88
2023-02-28T07:39:24.925Z,12.25
2023-02-28T07:41:52.085Z,12.02
2023-02-28T07:44:22.006Z,12.00
2023-02-28T07:46:49.761Z,12.15
2023-02-28T07:49:16.925Z,11.50
2023-02-28T07:51:44.209Z,12.52
2023-02-28T07:54:11.461Z,12.38
2023-02-28T07:56:38.507Z,11.88
2023-02-28T07:59:06.064Z,12.07
2023-02-28T08:01:33.642Z,11.77
2023-02-28T08:04:01.365Z,11.80
2023-02-28T08:06:28.341Z,11.38
2023-02-28T08:08:57.220Z,12.35
2023-02-28T08:11:24.471Z,11.77
2023-02-28T08:13:51.839Z,11.48
2023-02-28T08:16:23.484Z,11.55
2023-02-28T08:18:55.127Z,11.27
2023-02-28T08:21:23.021Z,11.43
2023-02-28T08:23:54.045Z,11.27
2023-02-28T08:26:21.752Z,10.38
2023-02-28T08:28:49.081Z,11.52
2023-02-28T08:31:18.321Z,11.18
2023-02-28T08:33:46.663Z,11.00
2023-02-28T08:36:14.271Z,10.45
2023-02-28T08:38:41.339Z,11.25
2023-02-28T08:41:12.694Z,10.60
2023-02-28T08:43:41.768Z,12.35
2023-02-28T08:46:13.387Z,10.80
2023-02-28T08:48:41.534Z,10.30
2023-02-28T08:54:31.743Z,9.57
2023-02-28T08:57:38.776Z,9.10
2023-02-28T09:00:09.934Z,10.45
2023-02-28T09:02:38.142Z,10.07
2023-02-28T09:05:38.822Z,10.15
2023-02-28T09:08:06.162Z,10.35
2023-02-28T09:10:33.210Z,8.43
2023-02-28T09:13:00.433Z,9.43
2023-02-28T09:15:27.670Z,11.05
2023-02-28T09:17:54.942Z,9.73
2023-02-28T09:20:22.231Z,9.00
2023-02-28T09:22:49.627Z,7.55
2023-02-28T09:25:16.836Z,8.45
2023-02-28T09:27:44.473Z,8.70
2023-02-28T09:30:29.327Z,7.75
2023-02-28T09:33:09.206Z,9.93
2023-02-28T09:35:40.583Z,9.68
2023-02-28T09:41:11.013Z,7.65
2023-02-28T09:43:44.503Z,7.13
2023-02-28T09:46:38.502Z,8.80
2023-02-28T09:49:26.618Z,6.43
2023-02-28T09:52:06.603Z,7.07
2023-02-28T09:54:48.435Z,8.27
2023-02-28T09:57:32.830Z,9.55
2023-02-28T10:00:24.379Z,9.15
2023-02-28T10:03:39.807Z,7.78
2023-02-28T10:06:21.116Z,5.35
2023-02-28T10:09:56.751Z,7.07
2023-02-28T10:17:10.030Z,6.05
2023-02-28T10:26:49.183Z,7.30
2023-02-28T10:29:16.696Z,7.50
2023-02-28T10:31:44.195Z,7.18
2023-02-28T10:34:15.045Z,7.25
2023-02-28T10:36:45.268Z,7.55
2023-02-28T10:39:49.120Z,8.13
2023-02-28T10:42:28.631Z,7.90
2023-02-28T10:45:18.527Z,7.82
2023-02-28T10:48:16.288Z,8.68
2023-02-28T10:50:49.363Z,8.73
2023-02-28T10:53:27.924Z,9.57
2023-02-28T10:56:07.568Z,9.65
2023-02-28T10:58:57.845Z,8.82
2023-02-28T11:01:46.450Z,8.68
2023-02-28T11:04:33.712Z,8.85
2023-02-28T11:07:07.026Z,9.57
2023-02-28T11:09:39.686Z,9.95
2023-02-28T11:12:31.410Z,7.88
2023-02-28T11:15:26.407Z,8.77
2023-02-28T11:18:30.578Z,8.73
2023-02-28T11:21:01.659Z,9.50
2023-02-28T11:23:35.960Z,8.85
2023-02-28T11:26:06.033Z,9.00
2023-02-28T11:28:39.783Z,9.90
2023-02-28T11:31:13.197Z,8.88
2023-02-28T11:33:56.970Z,8.10
2023-02-28T11:36:31.927Z,8.23
2023-02-28T11:39:12.141Z,7.55
2023-02-28T11:42:12.634Z,9.73
2023-02-28T11:45:16.166Z,9.88
2023-02-28T11:48:05.951Z,9.00
2023-02-28T11:51:16.119Z,7.82
2023-02-28T11:54:02.655Z,7.75
2023-02-28T11:56:47.817Z,7.72
2023-02-28T11:59:52.368Z,7.40
2023-02-28T12:02:57.368Z,6.90
2023-02-28T12:05:33.189Z,8.32
2023-02-28T12:08:23.552Z,8.70
2023-02-28T12:11:26.987Z,8.18
2023-02-28T12:14:39.909Z,7.40
2023-02-28T12:17:28.545Z,7.57
2023-02-28T12:20:26.353Z,6.93
2023-02-28T12:23:21.010Z,8.15
2023-02-28T12:26:29.332Z,8.57
2023-02-28T12:29:17.040Z,7.63
2023-02-28T12:32:16.297Z,8.23
2023-02-28T12:35:10.059Z,8.55
2023-02-28T12:37:48.076Z,9.52
2023-02-28T12:40:24.741Z,10.70
2023-02-28T12:43:04.756Z,8.35
2023-02-28T12:46:23.726Z,9.13
2023-02-28T12:49:29.005Z,21.30
2023-02-28T12:51:57.050Z,7.13
2023-02-28T12:55:01.422Z,9.63
2023-02-28T12:58:02.763Z,8.63
2023-02-28T13:00:44.480Z,11.25
2023-02-28T13:04:04.282Z,8.32
2023-02-28T13:07:21.350Z,9.05
2023-02-28T13:09:59.567Z,9.00
2023-02-28T13:12:41.480Z,7.65
2023-02-28T13:15:46.205Z,8.30
2023-02-28T13:18:47.686Z,8.65
2023-02-28T13:21:29.807Z,9.32
2023-02-28T13:24:05.942Z,9.85
2023-02-28T13:26:57.715Z,9.18
2023-02-28T13:29:46.285Z,9.80
2023-02-28T13:32:47.073Z,9.52
2023-02-28T13:39:05.093Z,9.30
2023-02-28T13:43:12.031Z,10.57
2023-02-28T13:46:07.560Z,9.35
2023-02-28T13:49:27.919Z,9.68
2023-02-28T13:52:12.778Z,10.55
2023-02-28T13:55:18.663Z,9.38
2023-02-28T13:58:17.992Z,10.20
2023-02-28T14:02:04.950Z,10.75
2023-02-28T14:07:57.075Z,10.35
2023-02-28T14:11:03.721Z,10.35
2023-02-28T14:14:38.718Z,11.43
2023-02-28T14:17:16.022Z,10.23
2023-02-28T14:20:00.809Z,11.10
2023-02-28T14:23:43.441Z,10.13
2023-02-28T14:26:56.585Z,10.32
2023-02-28T14:32:36.368Z,10.40
2023-02-28T14:35:41.169Z,12.18
2023-02-28T14:38:29.007Z,10.00
2023-02-28T14:41:04.135Z,10.55
2023-02-28T14:44:34.130Z,9.80
2023-02-28T14:47:07.131Z,10.55
2023-02-28T14:49:46.741Z,11.25
2023-02-28T14:52:23.531Z,10.50
2023-02-28T14:54:57.087Z,11.50
2023-02-28T14:57:33.940Z,11.73
2023-02-28T15:00:15.912Z,10.95
2023-02-28T15:02:45.612Z,11.02
2023-02-28T15:05:36.364Z,9.43
2023-02-28T15:08:16.288Z,11.38
2023-02-28T15:10:56.151Z,11.35
2023-02-28T15:13:55.696Z,10.07
2023-02-28T15:16:32.644Z,11.20
2023-02-28T15:19:12.627Z,11.65
2023-02-28T15:21:50.452Z,12.75
2023-02-28T15:24:38.602Z,12.30
2023-02-28T15:27:15.496Z,12.35
2023-02-28T15:30:45.565Z,11.60
2023-02-28T15:33:12.987Z,12.73
2023-02-28T15:35:40.906Z,14.13
2023-02-28T15:38:27.739Z,14.13
2023-02-28T15:40:59.274Z,13.80
2023-02-28T15:43:34.200Z,14.03
2023-02-28T15:46:14.806Z,14.27
2023-02-28T15:48:58.771Z,16.15
2023-02-28T15:51:38.951Z,15.27
2023-02-28T15:54:13.883Z,13.38
2023-02-28T15:56:47.208Z,12.60
2023-02-28T15:59:27.381Z,11.77
2023-02-28T16:02:37.892Z,13.20
2023-02-28T16:05:11.122Z,12.90
2023-02-28T16:07:46.086Z,13.73
2023-02-28T16:10:17.654Z,13.15
2023-02-28T16:12:49.929Z,12.88
2023-02-28T16:15:31.155Z,12.88
2023-02-28T16:18:04.762Z,13.25
2023-02-28T16:20:32.840Z,11.73
2023-02-28T16:23:03.990Z,12.25
2023-02-28T16:25:45.846Z,13.27
2023-02-28T16:28:45.106Z,12.73
2023-02-28T16:31:17.641Z,12.40
2023-02-28T16:33:46.344Z,13.77
2023-02-28T16:36:26.523Z,14.07
2023-02-28T16:38:55.236Z,13.32
2023-02-28T16:41:28.576Z,13.73
2023-02-28T16:44:01.249Z,14.95
2023-02-28T16:46:35.530Z,13.57
2023-02-28T16:49:03.301Z,13.10
2023-02-28T16:51:33.480Z,13.15
2023-02-28T16:54:04.774Z,13.77
2023-02-28T16:57:00.969Z,13.40
2023-02-28T16:59:35.350Z,14.45
2023-02-28T17:02:03.148Z,13.90
2023-02-28T17:04:30.424Z,13.52
2023-02-28T17:06:58.858Z,13.55
2023-02-28T17:09:40.032Z,14.20
2023-02-28T17:12:10.290Z,14.02
2023-02-28T17:14:38.531Z,14.45
2023-02-28T17:17:08.258Z,14.02
2023-02-28T17:19:37.247Z,13.98
2023-02-28T17:22:05.580Z,15.07
2023-02-28T17:24:32.734Z,15.45
2023-02-28T17:26:59.991Z,16.98
2023-02-28T17:29:27.354Z,16.65
2023-02-28T17:31:54.943Z,16.45
2023-02-28T17:34:22.954Z,15.93
2023-02-28T17:36:53.078Z,15.13
2023-02-28T17:39:25.380Z,17.98
2023-02-28T17:42:29.941Z,21.65
2023-02-28T17:44:57.534Z,20.90
2023-02-28T17:47:24.693Z,21.23
2023-02-28T17:49:52.579Z,21.80
2023-02-28T17:52:27.710Z,21.88
2023-02-28T17:54:56.442Z,19.95
2023-02-28T17:57:28.675Z,22.00
2023-02-28T18:01:17.439Z,20.20
2023-02-28T18:03:45.406Z,22.50
2023-02-28T18:06:25.866Z,21.65
2023-02-28T18:08:53.146Z,20.70
2023-02-28T18:11:22.832Z,21.35
2023-02-28T18:13:55.691Z,21.60
2023-02-28T18:16:29.746Z,23.60
2023-02-28T18:18:58.213Z,24.95
2023-02-28T18:21:25.361Z,26.75
2023-02-28T18:23:53.210Z,24.70
2023-02-28T18:26:20.450Z,24.88
2023-02-28T18:28:48.545Z,24.55
2023-02-28T18:31:19.537Z,27.05
2023-02-28T18:33:52.248Z,25.35
2023-02-28T18:38:50.623Z,22.38
2023-02-28T18:41:21.686Z,24.92
2023-02-28T18:43:52.110Z,23.73
2023-02-28T18:46:24.678Z,23.65
2023-02-28T18:48:57.502Z,22.42
2023-02-28T18:51:29.405Z,25.90
2023-02-28T18:53:59.170Z,23.40
2023-02-28T18:56:27.422Z,24.52
2023-02-28T18:59:00.773Z,25.33
2023-02-28T19:01:33.518Z,25.13
2023-02-28T19:04:05.737Z,27.00
2023-02-28T19:09:04.044Z,26.83
2023-02-28T19:11:32.480Z,27.30
2023-02-28T19:13:59.962Z,26.23
2023-02-28T19:16:30.218Z,27.48
2023-02-28T19:18:58.521Z,27.27
2023-02-28T19:21:27.465Z,26.33
2023-02-28T19:23:54.705Z,26.65
2023-02-28T19:26:25.568Z,26.23
2023-02-28T19:28:52.850Z,26.70
2023-02-28T19:31:26.219Z,27.67
2023-02-28T19:33:53.854Z,25.05
2023-02-28T19:36:22.608Z,27.95
2023-02-28T19:38:50.663Z,30.75
2023-02-28T19:41:21.635Z,33.33
2023-02-28T19:43:49.101Z,28.95
2023-02-28T19:46:16.918Z,28.23
2023-02-28T19:48:45.015Z,28.98
2023-02-28T19:51:15.094Z,28.33
2023-02-28T19:53:43.507Z,29.20
2023-02-28T19:56:11.439Z,28.10
2023-02-28T19:58:39.595Z,28.50
2023-02-28T20:01:15.672Z,29.60
2023-02-28T20:03:46.869Z,29.85
2023-02-28T20:06:17.460Z,31.40
2023-02-28T20:08:45.969Z,28.63
2023-02-28T20:11:16.795Z,28.70
2023-02-28T20:13:47.136Z,31.45
2023-02-28T20:16:15.920Z,29.80
2023-02-28T20:18:51.381Z,30.42
2023-02-28T20:21:20.191Z,30.58
2023-02-28T20:23:49.084Z,30.70
2023-02-28T20:26:20.171Z,30.90
2023-02-28T20:28:48.201Z,28.95
2023-02-28T20:31:20.236Z,30.13
2023-02-28T20:33:49.833Z,29.25
2023-02-28T20:36:20.236Z,29.58
2023-02-28T20:38:47.407Z,28.83
2023-02-28T20:41:15.098Z,29.58
2023-02-28T20:43:42.524Z,29.35
2023-02-28T20:46:13.317Z,29.65
2023-02-28T20:48:40.767Z,28.15
2023-02-28T20:51:09.547Z,28.70
2023-02-28T20:53:37.549Z,29.67
2023-02-28T20:56:16.105Z,26.92
2023-02-28T20:58:47.683Z,28.30
2023-02-28T21:01:28.310Z,27.70
2023-02-28T21:03:59.086Z,27.85
2023-02-28T21:06:31.090Z,27.02
2023-02-28T21:08:59.982Z,27.30
2023-02-28T21:11:34.544Z,27.88
2023-02-28T21:14:05.795Z,29.13
2023-02-28T21:16:35.789Z,28.60
2023-02-28T21:19:04.861Z,30.40
2023-02-28T21:21:38.615Z,29.85
2023-02-28T21:24:06.818Z,29.98
2023-02-28T21:26:34.313Z,29.88
2023-02-28T21:29:03.364Z,30.70
2023-02-28T21:31:33.456Z,28.98
2023-02-28T21:34:04.074Z,32.38
2023-02-28T21:36:36.395Z,31.50
2023-02-28T21:41:39.059Z,29.30
2023-02-28T21:47:50.569Z,29.17
2023-02-28T21:50:17.821Z,31.58
2023-02-28T21:52:45.247Z,33.28
2023-02-28T21:55:12.374Z,33.38
2023-02-28T21:57:39.623Z,32.28
2023-02-28T22:00:08.888Z,30.75
2023-02-28T22:02:39.334Z,31.50
2023-02-28T22:05:07.070Z,30.77
2023-02-28T22:07:58.699Z,30.75
2023-02-28T22:10:25.880Z,27.45
2023-02-28T22:12:53.076Z,28.60
2023-02-28T22:16:16.020Z,28.83
2023-02-28T22:18:43.022Z,29.27
2023-02-28T22:21:12.775Z,30.23
2023-02-28T22:23:41.958Z,27.08
2023-02-28T22:26:13.072Z,28.33
2023-02-28T22:28:42.737Z,29.63
2023-02-28T22:31:36.259Z,28.23
2023-02-28T22:34:08.000Z,28.23
2023-02-28T22:36:36.650Z,27.70
2023-02-28T22:39:04.994Z,27.83
2023-02-28T22:41:32.758Z,28.67
2023-02-28T22:44:03.696Z,28.92
2023-02-28T22:46:34.154Z,27.02
2023-02-28T22:49:07.604Z,27.67
2023-02-28T22:51:36.428Z,29.35
2023-02-28T22:54:04.491Z,29.00
2023-02-28T22:56:32.317Z,29.08
2023-02-28T22:59:01.360Z,29.08
2023-02-28T23:01:32.998Z,29.88
2023-02-28T23:04:02.187Z,29.15
2023-02-28T23:06:43.415Z,29.70
2023-02-28T23:09:18.346Z,29.83
2023-02-28T23:11:50.004Z,27.55
2023-02-28T23:14:19.709Z,29.63
2023-02-28T23:16:56.139Z,27.08
2023-02-28T23:19:30.444Z,26.52
2023-02-28T23:21:59.923Z,26.20
2023-02-28T23:24:31.891Z,25.02
2023-02-28T23:27:04.882Z,25.80
2023-02-28T23:29:34.180Z,26.08
2023-02-28T23:32:01.685Z,25.40
2023-02-28T23:34:32.027Z,26.65
2023-02-28T23:37:01.592Z,24.45
2023-02-28T23:39:31.294Z,24.95
2023-02-28T23:42:41.960Z,24.85
2023-02-28T23:45:30.738Z,23.83
2023-02-28T23:48:13.670Z,23.40
2023-02-28T23:50:42.432Z,24.60
2023-02-28T23:53:10.937Z,24.92
2023-02-28T23:55:47.156Z,25.55
2023-02-28T23:59:05.061Z,26.00
